Time;durP1;ratioP1;P1;durP2;ratioP2;P2;SDS_P1;SDS_P2;PMS_P1;PMS_P2;Temp;Humidity;BMP_temperature;BMP_pressure;BME280_temperature;BME280_humidity;BME280_pressure;Samples;Min_cycle;Max_cycle;Signal;HPM_P1;HPM_P2
2021/11/04 00:00:24;;;;;;;187.73;52.23;;;8.50;99.90;;;;;;6246078;23;20444;-73
2021/11/04 00:02:55;;;;;;;182.57;58.23;;;8.50;99.90;;;;;;6245671;23;20415;-72
2021/11/04 00:05:24;;;;;;;120.07;43.87;;;8.50;99.90;;;;;;6257674;22;20441;-73
2021/11/04 00:07:56;;;;;;;221.77;50.53;;;8.50;99.90;;;;;;6245673;23;20420;-73
2021/11/04 00:10:25;;;;;;;150.87;44.83;;;8.50;99.90;;;;;;6245688;23;20610;-73
2021/11/04 00:12:54;;;;;;;135.67;42.83;;;8.50;99.90;;;;;;6245765;23;20405;-72
2021/11/04 00:15:22;;;;;;;201.03;44.67;;;8.50;99.90;;;;;;6245567;22;20441;-73
2021/11/04 00:17:51;;;;;;;164.60;37.33;;;8.40;99.90;;;;;;6257315;22;20792;-73
2021/11/04 00:20:21;;;;;;;159.47;44.10;;;8.50;99.90;;;;;;6257344;22;20425;-72
2021/11/04 00:22:50;;;;;;;193.37;46.03;;;8.50;99.90;;;;;;6245430;23;20486;-73
2021/11/04 00:25:19;;;;;;;130.13;32.37;;;8.50;99.90;;;;;;6257122;22;20725;-73
2021/11/04 00:27:48;;;;;;;154.37;35.73;;;8.40;99.90;;;;;;6257300;23;20401;-72
2021/11/04 00:30:18;;;;;;;135.87;34.03;;;8.50;99.90;;;;;;6245374;23;20520;-72
2021/11/04 00:32:48;;;;;;;132.47;29.87;;;8.40;99.90;;;;;;6257569;22;20433;-72
2021/11/04 00:35:16;;;;;;;164.87;34.97;;;8.40;99.90;;;;;;6271009;22;20467;-72
2021/11/04 00:37:46;;;;;;;121.07;37.23;;;8.40;99.90;;;;;;6257284;22;20411;-72
2021/11/04 00:40:16;;;;;;;221.77;37.30;;;8.40;99.90;;;;;;6245321;23;20441;-72
2021/11/04 00:42:44;;;;;;;201.20;38.70;;;8.40;99.90;;;;;;6245375;23;20500;-72
2021/11/04 00:45:13;;;;;;;121.53;27.73;;;8.40;99.90;;;;;;6257435;22;20435;-72
2021/11/04 00:47:41;;;;;;;203.83;34.87;;;8.40;99.90;;;;;;6245339;23;20932;-72
2021/11/04 00:50:09;;;;;;;168.73;41.80;;;8.40;99.90;;;;;;6245172;23;20467;-72
2021/11/04 00:52:38;;;;;;;204.77;37.07;;;8.40;99.90;;;;;;6245088;23;20417;-72
2021/11/04 00:55:09;;;;;;;170.10;34.57;;;8.30;99.90;;;;;;6256894;22;20436;-72
2021/11/04 00:57:37;;;;;;;151.50;34.80;;;8.30;99.90;;;;;;6257225;23;20826;-72
2021/11/04 01:00:09;;;;;;;109.13;26.40;;;8.30;99.90;;;;;;6245110;23;20434;-72
2021/11/04 01:02:37;;;;;;;149.67;40.87;;;8.30;99.90;;;;;;6257256;22;20378;-72
2021/11/04 01:05:06;;;;;;;100.97;24.00;;;8.30;99.90;;;;;;6257113;22;20943;-72
2021/11/04 01:07:34;;;;;;;123.20;26.80;;;8.30;99.90;;;;;;6256858;22;20402;-72
2021/11/04 01:10:04;;;;;;;169.00;37.67;;;8.30;99.90;;;;;;6257125;22;20472;-72
2021/11/04 01:12:34;;;;;;;111.70;30.17;;;8.30;99.90;;;;;;6245003;23;20880;-72
2021/11/04 01:15:02;;;;;;;209.03;52.03;;;8.30;99.90;;;;;;6257009;22;20799;-72
2021/11/04 01:17:31;;;;;;;118.97;34.10;;;8.30;99.90;;;;;;6256670;22;20974;-72
2021/11/04 01:19:59;;;;;;;207.00;41.80;;;8.30;99.90;;;;;;6270429;22;20441;-72
2021/11/04 01:22:28;;;;;;;124.20;32.73;;;8.30;99.90;;;;;;6257014;22;20397;-72
2021/11/04 01:24:56;;;;;;;177.33;31.23;;;8.30;99.90;;;;;;6257409;22;20863;-72
2021/11/04 01:27:24;;;;;;;123.83;35.97;;;8.30;99.90;;;;;;6256737;22;20401;-72
2021/11/04 01:29:55;;;;;;;193.80;36.07;;;8.30;99.90;;;;;;6246681;22;20439;-72
2021/11/04 01:32:23;;;;;;;174.53;42.07;;;8.30;99.90;;;;;;6257329;22;20380;-72
2021/11/04 01:34:51;;;;;;;182.77;39.17;;;8.30;99.90;;;;;;6244722;23;20762;-72
2021/11/04 01:37:20;;;;;;;120.93;37.03;;;8.30;99.90;;;;;;6270234;22;20427;-72
2021/11/04 01:39:48;;;;;;;193.40;39.20;;;8.30;99.90;;;;;;6244939;23;20439;-72
2021/11/04 01:42:18;;;;;;;127.13;32.93;;;8.30;99.90;;;;;;6244950;23;20416;-72
2021/11/04 01:44:46;;;;;;;72.37;30.93;;;8.30;99.90;;;;;;6257454;22;20416;-72
2021/11/04 01:47:17;;;;;;;103.27;37.40;;;8.30;99.90;;;;;;6257521;22;20395;-72
2021/11/04 01:49:46;;;;;;;133.23;39.50;;;8.30;99.90;;;;;;6244571;23;21014;-72
2021/11/04 01:52:15;;;;;;;107.60;39.57;;;8.30;99.90;;;;;;6250438;22;20408;-72
2021/11/04 01:54:43;;;;;;;135.07;40.40;;;8.30;99.90;;;;;;6244419;23;20429;-72
2021/11/04 01:57:13;;;;;;;163.87;49.63;;;8.30;99.90;;;;;;6244726;23;20760;-72
2021/11/04 01:59:41;;;;;;;195.00;44.53;;;8.30;99.90;;;;;;6244597;23;20444;-72
2021/11/04 02:02:16;;;;;;;138.60;37.30;;;8.30;99.90;;;;;;6256422;22;20748;-72
2021/11/04 02:04:53;;;;;;;166.47;55.97;;;8.30;99.90;;;;;;6244896;23;20417;-72
2021/11/04 02:07:31;;;;;;;125.03;42.63;;;8.30;99.90;;;;;;6256432;22;20398;-72
2021/11/04 02:10:06;;;;;;;179.10;49.87;;;8.30;99.90;;;;;;6256618;22;20420;-72
2021/11/04 02:12:41;;;;;;;136.27;41.17;;;8.30;99.90;;;;;;6246714;22;20387;-72
2021/11/04 02:15:09;;;;;;;149.97;40.43;;;8.30;99.90;;;;;;6244461;23;20532;-72
2021/11/04 02:17:38;;;;;;;132.23;39.43;;;8.30;99.90;;;;;;6256416;22;20729;-72
2021/11/04 02:20:11;;;;;;;128.03;50.37;;;8.30;99.90;;;;;;6256051;22;20417;-72
2021/11/04 02:22:49;;;;;;;181.67;46.17;;;8.30;99.90;;;;;;6246146;22;20856;-72
2021/11/04 02:25:20;;;;;;;182.67;44.37;;;8.30;99.90;;;;;;6256503;22;20418;-72
2021/11/04 02:27:50;;;;;;;112.80;38.43;;;8.30;99.90;;;;;;6246468;22;20463;-72
2021/11/04 02:30:20;;;;;;;156.60;48.13;;;8.30;99.90;;;;;;6246492;23;20491;-72
2021/11/04 02:32:50;;;;;;;181.20;43.80;;;8.20;99.90;;;;;;6258652;22;20397;-72
2021/11/04 02:35:18;;;;;;;131.83;42.00;;;8.20;99.90;;;;;;6246271;23;20910;-72
2021/11/04 02:37:48;;;;;;;143.37;48.53;;;8.30;99.90;;;;;;6258587;22;20408;-72
2021/11/04 02:40:20;;;;;;;173.47;45.93;;;8.20;99.90;;;;;;6258302;22;20918;-72
2021/11/04 02:42:49;;;;;;;180.33;45.63;;;8.30;99.90;;;;;;6246403;23;20417;-75
2021/11/04 02:45:20;;;;;;;158.27;45.97;;;8.30;99.90;;;;;;6258230;22;20389;-72
2021/11/04 02:47:49;;;;;;;180.73;40.33;;;8.30;99.90;;;;;;6246424;23;20419;-72
2021/11/04 02:50:19;;;;;;;108.07;36.23;;;8.20;99.90;;;;;;6248262;22;20463;-72
2021/11/04 02:52:48;;;;;;;173.80;50.90;;;8.30;99.90;;;;;;6258300;22;20448;-72
2021/11/04 02:55:19;;;;;;;112.80;41.10;;;8.30;99.90;;;;;;6258638;22;20400;-72
2021/11/04 02:57:49;;;;;;;106.57;36.30;;;8.30;99.90;;;;;;6246604;23;20409;-72
2021/11/04 03:00:18;;;;;;;111.37;40.50;;;8.30;99.90;;;;;;6271750;22;20445;-72
2021/11/04 03:02:47;;;;;;;113.73;42.70;;;8.30;99.90;;;;;;6258880;22;20401;-72
2021/11/04 03:05:15;;;;;;;164.83;50.93;;;8.30;99.90;;;;;;6258005;22;20436;-72
2021/11/04 03:07:43;;;;;;;150.53;43.47;;;8.30;99.90;;;;;;6258355;22;20781;-72
2021/11/04 03:10:11;;;;;;;178.10;50.07;;;8.30;99.90;;;;;;6246517;23;20471;-72
2021/11/04 03:12:41;;;;;;;120.73;54.00;;;8.30;99.90;;;;;;6246211;23;20915;-72
2021/11/04 03:15:12;;;;;;;166.40;48.63;;;8.30;99.90;;;;;;6246077;23;20757;-72
2021/11/04 03:17:41;;;;;;;143.27;41.53;;;8.30;99.90;;;;;;6257906;22;20419;-72
2021/11/04 03:20:11;;;;;;;171.00;51.83;;;8.30;99.90;;;;;;6271519;22;20441;-72
2021/11/04 03:22:40;;;;;;;174.63;52.97;;;8.30;99.90;;;;;;6257767;22;20397;-72
2021/11/04 03:25:09;;;;;;;171.50;45.83;;;8.30;99.90;;;;;;6257537;22;20935;-72
2021/11/04 03:27:41;;;;;;;136.70;50.43;;;8.30;99.90;;;;;;6246077;23;20440;-72
2021/11/04 03:30:11;;;;;;;151.53;46.03;;;8.30;99.90;;;;;;6247658;22;20803;-72
2021/11/04 03:32:42;;;;;;;203.40;54.17;;;8.30;99.90;;;;;;6258150;22;20832;-72
2021/11/04 03:35:11;;;;;;;123.70;43.30;;;8.30;99.90;;;;;;6257716;22;20394;-72
2021/11/04 03:37:44;;;;;;;121.17;43.10;;;8.40;99.90;;;;;;6245881;23;20444;-72
2021/11/04 03:40:13;;;;;;;176.27;55.77;;;8.30;99.90;;;;;;6257516;22;20476;-72
2021/11/04 03:42:43;;;;;;;132.97;45.13;;;8.30;99.90;;;;;;6245923;23;20421;-72
2021/11/04 03:45:14;;;;;;;110.37;43.83;;;8.30;99.90;;;;;;6257662;22;20431;-72
2021/11/04 03:47:44;;;;;;;165.20;48.70;;;8.30;99.90;;;;;;6271357;22;20466;-72
2021/11/04 03:50:13;;;;;;;150.77;49.23;;;8.30;99.90;;;;;;6245815;23;20432;-72
2021/11/04 03:52:43;;;;;;;260.57;62.13;;;8.40;99.90;;;;;;6245785;23;20919;-72
2021/11/04 03:55:13;;;;;;;195.17;52.87;;;8.30;99.90;;;;;;6257900;22;20394;-72
2021/11/04 03:57:43;;;;;;;197.23;48.07;;;8.40;99.90;;;;;;6258219;22;20446;-72
2021/11/04 04:00:14;;;;;;;97.80;40.43;;;8.40;99.90;;;;;;6245679;23;20443;-72
2021/11/04 04:02:46;;;;;;;138.00;43.07;;;8.40;99.90;;;;;;6257490;22;20464;-72
2021/11/04 04:05:14;;;;;;;177.60;50.73;;;8.40;99.90;;;;;;6257549;22;20775;-72
2021/11/04 04:07:43;;;;;;;97.40;46.23;;;8.40;99.90;;;;;;6248519;22;20720;-72
2021/11/04 04:10:12;;;;;;;202.47;50.43;;;8.40;99.90;;;;;;6245472;23;20430;-72
2021/11/04 04:12:40;;;;;;;133.53;50.33;;;8.40;99.90;;;;;;6257171;22;20454;-72
2021/11/04 04:15:10;;;;;;;160.87;50.07;;;8.40;99.90;;;;;;6245883;23;20499;-72
2021/11/04 04:17:38;;;;;;;111.10;47.10;;;8.40;99.90;;;;;;6257190;22;20468;-72
2021/11/04 04:20:07;;;;;;;86.37;44.83;;;8.40;99.90;;;;;;6257152;23;20420;-72
2021/11/04 04:22:35;;;;;;;211.87;53.93;;;8.40;99.90;;;;;;6257326;22;20437;-72
2021/11/04 04:25:04;;;;;;;239.87;56.47;;;8.40;99.90;;;;;;6257266;22;20733;-72
2021/11/04 04:27:33;;;;;;;194.60;60.13;;;8.40;99.90;;;;;;6257279;22;20400;-72
2021/11/04 04:30:02;;;;;;;151.13;52.57;;;8.40;99.90;;;;;;6257318;22;20889;-72
2021/11/04 04:32:31;;;;;;;187.90;50.57;;;8.40;99.90;;;;;;6271258;22;20419;-72
2021/11/04 04:34:59;;;;;;;112.83;50.00;;;8.40;99.90;;;;;;6257081;22;20428;-72
2021/11/04 04:37:28;;;;;;;169.57;62.87;;;8.40;99.90;;;;;;6257140;22;20440;-72
2021/11/04 04:39:56;;;;;;;143.73;47.77;;;8.40;99.90;;;;;;6247120;22;20439;-72
2021/11/04 04:42:24;;;;;;;198.20;51.33;;;8.50;99.90;;;;;;6245385;23;20503;-72
2021/11/04 04:44:52;;;;;;;202.97;54.40;;;8.40;99.90;;;;;;6257421;22;20394;-72
2021/11/04 04:47:20;;;;;;;145.43;51.23;;;8.40;99.90;;;;;;6245433;23;20750;-72
2021/11/04 04:49:50;;;;;;;206.90;60.63;;;8.40;99.90;;;;;;6256934;22;20422;-72
2021/11/04 04:52:18;;;;;;;155.47;54.57;;;8.50;99.90;;;;;;6250919;22;20511;-72
2021/11/04 04:54:46;;;;;;;143.53;53.43;;;8.40;99.90;;;;;;6246843;22;20912;-73
2021/11/04 04:57:21;;;;;;;112.47;47.33;;;8.50;99.90;;;;;;6257284;22;20428;-72
2021/11/04 04:59:50;;;;;;;140.07;49.63;;;8.50;99.90;;;;;;6245105;23;20523;-72
2021/11/04 05:02:18;;;;;;;169.10;49.57;;;8.50;99.90;;;;;;6256877;22;20398;-72
2021/11/04 05:04:47;;;;;;;175.73;55.17;;;8.50;99.90;;;;;;6256719;22;20471;-72
2021/11/04 05:07:16;;;;;;;162.33;55.70;;;8.50;99.90;;;;;;6256917;22;20393;-72
2021/11/04 05:09:45;;;;;;;213.37;58.57;;;8.50;99.90;;;;;;6246644;22;20422;-72
2021/11/04 05:12:13;;;;;;;220.80;62.13;;;8.50;99.90;;;;;;6256951;22;20436;-72
2021/11/04 05:14:42;;;;;;;184.10;62.33;;;8.50;99.90;;;;;;6246050;23;20449;-72
2021/11/04 05:17:10;;;;;;;146.37;56.33;;;8.50;99.90;;;;;;6256597;22;20553;-72
2021/11/04 05:19:38;;;;;;;97.53;46.60;;;8.50;99.90;;;;;;6256640;22;20428;-72
2021/11/04 05:22:06;;;;;;;136.20;50.27;;;8.50;99.90;;;;;;6256572;22;20480;-75
2021/11/04 05:24:36;;;;;;;156.03;50.83;;;8.50;99.90;;;;;;6256669;22;20451;-72
2021/11/04 05:27:05;;;;;;;116.43;50.67;;;8.50;99.90;;;;;;6244903;23;20409;-72
2021/11/04 05:29:34;;;;;;;141.37;48.90;;;8.50;99.90;;;;;;6257555;22;20435;-72
2021/11/04 05:32:06;;;;;;;172.57;58.73;;;8.50;99.90;;;;;;6257100;22;20424;-72
2021/11/04 05:34:35;;;;;;;143.20;52.10;;;8.50;99.90;;;;;;6246849;22;20405;-72
2021/11/04 05:37:04;;;;;;;217.53;62.27;;;8.50;99.90;;;;;;6256162;22;20487;-72
2021/11/04 05:39:32;;;;;;;185.47;58.97;;;8.50;99.90;;;;;;6270358;22;20410;-72
2021/11/04 05:42:02;;;;;;;189.13;55.63;;;8.50;99.90;;;;;;6256418;22;20429;-72
2021/11/04 05:44:30;;;;;;;232.37;57.80;;;8.50;99.90;;;;;;6244709;23;20900;-72
2021/11/04 05:46:58;;;;;;;162.87;54.50;;;8.50;99.90;;;;;;6244787;23;20442;-72
2021/11/04 05:49:26;;;;;;;120.50;59.90;;;8.60;99.90;;;;;;6246420;22;20402;-73
2021/11/04 05:51:55;;;;;;;189.43;58.90;;;8.50;99.90;;;;;;6244388;23;20465;-72
2021/11/04 05:54:23;;;;;;;167.13;56.97;;;8.50;99.90;;;;;;6244818;23;20511;-73
2021/11/04 05:56:51;;;;;;;186.90;59.17;;;8.60;99.90;;;;;;6244636;23;20464;-75
2021/11/04 05:59:21;;;;;;;205.77;62.63;;;8.60;99.90;;;;;;6244649;23;20456;-73
2021/11/04 06:01:49;;;;;;;168.50;60.17;;;8.60;99.90;;;;;;6244774;23;20412;-72
2021/11/04 06:04:17;;;;;;;212.07;58.83;;;8.50;99.90;;;;;;6256303;22;20412;-72
2021/11/04 06:06:45;;;;;;;176.83;54.90;;;8.60;99.90;;;;;;6244262;23;20412;-72
2021/11/04 06:09:14;;;;;;;225.27;56.83;;;8.50;99.90;;;;;;6245571;22;20408;-72
2021/11/04 06:11:42;;;;;;;170.97;58.13;;;8.50;99.90;;;;;;6246146;23;20444;-73
2021/11/04 06:14:10;;;;;;;235.80;53.20;;;8.60;99.90;;;;;;6244664;23;20405;-72
2021/11/04 06:16:40;;;;;;;203.03;52.13;;;8.50;99.90;;;;;;6244558;23;20423;-72
2021/11/04 06:19:08;;;;;;;181.00;58.10;;;8.60;99.90;;;;;;6256932;22;20429;-72
2021/11/04 06:21:36;;;;;;;178.00;55.53;;;8.60;99.90;;;;;;6256398;22;20932;-72
2021/11/04 06:24:05;;;;;;;131.97;55.80;;;8.60;99.90;;;;;;6244875;23;20500;-72
2021/11/04 06:26:33;;;;;;;194.53;58.63;;;8.60;99.90;;;;;;6257035;22;20421;-72
2021/11/04 06:29:01;;;;;;;161.83;53.00;;;8.60;99.90;;;;;;6244728;23;20448;-73
2021/11/04 06:31:29;;;;;;;176.37;61.30;;;8.60;99.90;;;;;;6244425;23;20528;-72
2021/11/04 06:33:59;;;;;;;191.43;63.50;;;8.50;99.90;;;;;;6244641;23;20452;-72
2021/11/04 06:36:27;;;;;;;187.90;58.43;;;8.50;99.90;;;;;;6244557;23;20405;-72
2021/11/04 06:38:55;;;;;;;207.67;68.37;;;8.50;99.90;;;;;;6269872;22;20433;-72
2021/11/04 06:41:23;;;;;;;100.30;49.50;;;8.50;99.90;;;;;;6256699;22;20520;-72
2021/11/04 06:43:52;;;;;;;139.80;54.40;;;8.60;99.90;;;;;;6244601;23;20417;-72
2021/11/04 06:46:24;;;;;;;178.70;57.77;;;8.60;99.90;;;;;;6244709;23;20500;-73
2021/11/04 06:48:59;;;;;;;197.73;64.73;;;8.60;99.90;;;;;;6270043;22;20405;-72
2021/11/04 06:51:31;;;;;;;191.50;62.13;;;8.50;99.90;;;;;;6244080;23;20997;-72
2021/11/04 06:54:03;;;;;;;127.20;57.83;;;8.50;99.90;;;;;;6256477;22;20386;-72
2021/11/04 06:56:39;;;;;;;169.97;57.50;;;8.50;99.90;;;;;;6256434;22;20405;-72
2021/11/04 06:59:16;;;;;;;148.63;52.23;;;8.50;99.90;;;;;;6244402;23;20432;-72
2021/11/04 07:01:50;;;;;;;160.17;51.80;;;8.60;99.90;;;;;;6256315;22;20381;-72
2021/11/04 07:04:28;;;;;;;152.40;53.10;;;8.50;99.90;;;;;;6244527;23;20864;-72
2021/11/04 07:07:03;;;;;;;174.80;60.83;;;8.60;99.90;;;;;;6244524;23;20412;-72
2021/11/04 07:09:33;;;;;;;189.47;57.07;;;8.50;99.90;;;;;;6244393;23;20409;-72
2021/11/04 07:12:02;;;;;;;237.87;61.10;;;8.50;99.90;;;;;;6256036;22;20444;-72
2021/11/04 07:14:32;;;;;;;118.83;45.57;;;8.50;99.90;;;;;;6244418;23;20420;-72
2021/11/04 07:17:02;;;;;;;216.37;55.93;;;8.50;99.90;;;;;;6258067;22;20374;-72
2021/11/04 07:19:30;;;;;;;103.37;49.00;;;8.50;99.90;;;;;;6257778;22;20468;-72
2021/11/04 07:22:13;;;;;;;110.57;49.60;;;8.50;99.90;;;;;;6247247;23;20539;-72
2021/11/04 07:24:46;;;;;;;130.07;58.07;;;8.50;99.90;;;;;;6248047;22;20397;-73
2021/11/04 07:27:26;;;;;;;169.37;53.53;;;8.50;99.90;;;;;;6246134;23;20416;-72
2021/11/04 07:30:01;;;;;;;239.30;62.67;;;8.60;99.90;;;;;;6258322;22;20495;-73
2021/11/04 07:32:32;;;;;;;161.60;56.43;;;8.60;99.90;;;;;;6258531;22;20380;-72
2021/11/04 07:35:00;;;;;;;239.20;62.90;;;8.50;99.90;;;;;;6271720;22;20908;-72
2021/11/04 07:37:32;;;;;;;131.17;48.13;;;8.50;99.90;;;;;;6258196;22;20435;-72
2021/11/04 07:40:01;;;;;;;191.33;48.43;;;8.60;99.90;;;;;;6245898;23;20499;-72
2021/11/04 07:42:29;;;;;;;199.33;59.03;;;8.50;99.90;;;;;;6245916;23;20409;-72
2021/11/04 07:44:57;;;;;;;111.00;41.60;;;8.60;99.90;;;;;;6247669;22;20891;-72
2021/11/04 07:47:26;;;;;;;176.60;56.57;;;8.60;99.90;;;;;;6258091;22;20869;-73
2021/11/04 07:49:54;;;;;;;148.23;48.73;;;8.60;99.90;;;;;;6246798;23;20438;-72
2021/11/04 07:52:22;;;;;;;118.47;48.70;;;8.60;99.90;;;;;;6247482;22;20421;-72
2021/11/04 07:54:52;;;;;;;143.93;52.63;;;8.60;99.90;;;;;;6245866;23;20433;-73
2021/11/04 07:57:20;;;;;;;133.50;49.43;;;8.60;99.90;;;;;;6271416;22;20412;-72
2021/11/04 07:59:48;;;;;;;161.50;52.03;;;8.60;99.90;;;;;;6245659;23;20453;-72
2021/11/04 08:02:16;;;;;;;171.57;58.33;;;8.60;99.90;;;;;;6245690;23;20471;-72
2021/11/04 08:04:45;;;;;;;260.67;59.70;;;8.70;99.90;;;;;;6247368;22;20462;-72
2021/11/04 08:07:13;;;;;;;195.27;59.27;;;8.70;99.90;;;;;;6271322;22;20417;-72
2021/11/04 08:09:41;;;;;;;111.37;50.60;;;8.70;99.90;;;;;;6257371;22;20417;-72
2021/11/04 08:12:11;;;;;;;207.70;53.90;;;8.70;99.90;;;;;;6257367;22;20393;-72
2021/11/04 08:14:41;;;;;;;155.47;54.00;;;8.70;99.90;;;;;;6257421;22;20397;-72
2021/11/04 08:17:10;;;;;;;221.60;57.87;;;8.70;99.90;;;;;;6257681;22;20397;-72
2021/11/04 08:19:38;;;;;;;147.50;50.63;;;8.80;99.90;;;;;;6247030;22;21859;-72
2021/11/04 08:22:06;;;;;;;225.23;49.83;;;8.80;99.90;;;;;;6257592;22;20448;-72
2021/11/04 08:24:34;;;;;;;156.00;47.97;;;8.80;99.90;;;;;;6257295;22;20408;-72
2021/11/04 08:27:02;;;;;;;230.30;59.67;;;8.80;99.90;;;;;;6245583;23;20821;-72
2021/11/04 08:29:32;;;;;;;217.17;54.43;;;8.80;99.90;;;;;;6270921;22;20493;-72
2021/11/04 08:32:00;;;;;;;143.77;52.40;;;8.80;99.90;;;;;;6257426;22;20476;-72
2021/11/04 08:34:28;;;;;;;195.77;59.23;;;8.90;99.90;;;;;;6247267;22;20467;-72
2021/11/04 08:36:57;;;;;;;158.80;47.97;;;8.90;99.90;;;;;;6257365;22;20402;-73
2021/11/04 08:39:25;;;;;;;254.80;61.60;;;8.90;99.90;;;;;;6247031;22;20437;-72
2021/11/04 08:41:53;;;;;;;219.10;59.73;;;8.90;99.90;;;;;;6245449;23;20417;-72
2021/11/04 08:44:21;;;;;;;210.00;54.47;;;8.90;99.90;;;;;;6257072;22;20410;-73
2021/11/04 08:46:51;;;;;;;126.20;47.27;;;8.90;99.90;;;;;;6257242;22;20401;-72
2021/11/04 08:49:20;;;;;;;105.40;42.83;;;9.00;99.90;;;;;;6256931;22;20400;-72
2021/11/04 08:51:50;;;;;;;139.67;45.13;;;9.00;99.90;;;;;;6257686;22;20478;-73
2021/11/04 08:54:18;;;;;;;162.30;45.13;;;9.00;99.90;;;;;;6245492;23;20456;-72
2021/11/04 08:56:47;;;;;;;164.83;49.27;;;8.90;99.90;;;;;;6247145;22;20478;-72
2021/11/04 08:59:15;;;;;;;216.67;46.30;;;8.90;99.90;;;;;;6247027;22;20516;-72
2021/11/04 09:01:44;;;;;;;174.33;41.40;;;8.90;99.90;;;;;;6257434;22;20421;-72
2021/11/04 09:04:15;;;;;;;221.70;52.47;;;8.90;99.90;;;;;;6246808;22;20397;-72
2021/11/04 09:06:43;;;;;;;182.03;47.20;;;8.90;99.90;;;;;;6257247;22;20400;-72
2021/11/04 09:09:12;;;;;;;157.63;43.33;;;9.00;99.90;;;;;;6270705;22;20471;-72
2021/11/04 09:11:40;;;;;;;217.30;52.33;;;9.00;99.90;;;;;;6256731;22;20464;-72
2021/11/04 09:14:12;;;;;;;137.80;47.63;;;9.00;99.90;;;;;;6245497;23;20513;-73
2021/11/04 09:16:41;;;;;;;175.20;45.93;;;9.00;99.90;;;;;;6257275;22;20393;-73
2021/11/04 09:19:10;;;;;;;179.03;49.70;;;9.00;99.90;;;;;;6245044;23;20780;-73
2021/11/04 09:21:40;;;;;;;256.80;64.43;;;9.00;99.90;;;;;;6244910;23;20491;-73
2021/11/04 09:24:08;;;;;;;121.20;44.13;;;9.10;99.90;;;;;;6244975;23;20888;-72
2021/11/04 09:26:37;;;;;;;118.40;40.43;;;9.10;99.90;;;;;;6256738;22;20875;-73
2021/11/04 09:29:06;;;;;;;225.93;49.77;;;9.10;99.90;;;;;;6257050;22;20488;-73
2021/11/04 09:31:35;;;;;;;144.00;43.53;;;9.10;99.90;;;;;;6270707;22;20491;-73
2021/11/04 09:34:03;;;;;;;116.80;45.50;;;9.20;99.90;;;;;;6256712;22;20448;-73
2021/11/04 09:36:33;;;;;;;136.07;40.13;;;9.20;99.90;;;;;;6256570;22;20436;-73
2021/11/04 09:39:05;;;;;;;210.17;51.17;;;9.20;99.90;;;;;;6244369;23;20420;-73
2021/11/04 09:41:33;;;;;;;141.70;41.80;;;9.20;99.90;;;;;;6245201;23;20483;-73
2021/11/04 09:44:03;;;;;;;218.87;43.57;;;9.20;99.90;;;;;;6244795;23;20405;-73
2021/11/04 09:46:32;;;;;;;227.43;56.47;;;9.20;99.90;;;;;;6256544;22;20393;-73
2021/11/04 09:49:00;;;;;;;125.70;41.27;;;9.20;99.90;;;;;;6257158;22;20404;-73
2021/11/04 09:51:28;;;;;;;179.83;57.53;;;9.20;99.90;;;;;;6246462;22;20730;-73
2021/11/04 09:53:56;;;;;;;251.10;60.83;;;9.30;99.90;;;;;;6270326;22;20456;-73
2021/11/04 09:56:26;;;;;;;176.60;46.33;;;9.30;99.90;;;;;;6256765;22;20443;-72
2021/11/04 09:58:54;;;;;;;176.43;43.13;;;9.30;99.90;;;;;;6256603;22;20432;-72
2021/11/04 10:01:25;;;;;;;192.73;54.87;;;9.40;99.90;;;;;;6256348;22;20453;-72
2021/11/04 10:03:54;;;;;;;171.87;40.83;;;9.40;99.90;;;;;;6256956;22;20785;-72
2021/11/04 10:06:24;;;;;;;223.80;39.97;;;9.40;99.90;;;;;;6256490;22;20943;-73
2021/11/04 10:08:53;;;;;;;118.73;31.03;;;9.40;99.90;;;;;;6245035;23;20417;-73
2021/11/04 10:11:30;;;;;;;246.53;53.43;;;9.40;99.90;;;;;;6246392;22;20429;-72
2021/11/04 10:14:03;;;;;;;275.57;57.67;;;9.50;99.90;;;;;;6256512;22;20701;-72
2021/11/04 10:16:33;;;;;;;185.43;39.17;;;9.50;99.90;;;;;;6244665;23;20442;-72
2021/11/04 10:19:14;;;;;;;252.33;53.80;;;9.50;99.90;;;;;;6256555;22;20443;-72
2021/11/04 10:21:44;;;;;;;158.63;42.67;;;9.50;99.90;;;;;;6256292;22;20410;-72
2021/11/04 10:24:17;;;;;;;167.83;39.73;;;9.60;99.90;;;;;;6246530;22;20402;-72
2021/11/04 10:26:52;;;;;;;233.23;49.40;;;9.50;99.90;;;;;;6256691;22;20375;-72
2021/11/04 10:29:21;;;;;;;258.13;56.57;;;9.50;99.90;;;;;;6244428;23;20409;-72
2021/11/04 10:31:51;;;;;;;242.97;49.10;;;9.50;99.90;;;;;;6256869;22;20939;-72
2021/11/04 10:34:26;;;;;;;203.57;45.90;;;9.50;99.90;;;;;;6257066;22;20443;-72
2021/11/04 10:36:55;;;;;;;286.37;56.10;;;9.50;99.90;;;;;;6257011;22;20436;-72
2021/11/04 10:39:27;;;;;;;234.73;43.63;;;9.50;99.90;;;;;;6256472;22;20413;-72
2021/11/04 10:41:57;;;;;;;130.33;37.70;;;9.50;99.90;;;;;;6257017;22;20424;-72
2021/11/04 10:44:30;;;;;;;245.10;43.70;;;9.50;99.90;;;;;;6256384;22;20398;-72
2021/11/04 10:46:59;;;;;;;255.13;49.57;;;9.50;99.90;;;;;;6256628;22;20374;-72
2021/11/04 10:49:29;;;;;;;172.63;41.33;;;9.50;99.90;;;;;;6270633;22;20496;-72
2021/11/04 10:51:58;;;;;;;190.63;42.80;;;9.50;99.90;;;;;;6253865;22;20409;-72
2021/11/04 10:54:26;;;;;;;196.77;42.67;;;9.50;99.90;;;;;;6247030;23;20402;-73
2021/11/04 10:56:56;;;;;;;251.73;55.03;;;9.50;99.90;;;;;;6258230;22;20476;-72
2021/11/04 10:59:25;;;;;;;198.63;42.83;;;9.50;99.90;;;;;;6258208;22;20409;-72
2021/11/04 11:01:55;;;;;;;205.00;45.13;;;9.50;99.90;;;;;;6258374;22;20425;-72
2021/11/04 11:04:25;;;;;;;177.33;48.90;;;9.50;99.90;;;;;;6246395;23;20991;-72
2021/11/04 11:06:55;;;;;;;269.80;43.90;;;9.50;99.90;;;;;;6246305;23;20463;-72
2021/11/04 11:09:25;;;;;;;276.83;47.93;;;9.50;99.90;;;;;;6258298;22;20382;-72
2021/11/04 11:11:55;;;;;;;192.23;44.73;;;9.60;99.90;;;;;;6246332;23;20448;-72
2021/11/04 11:14:29;;;;;;;128.00;35.97;;;9.60;99.90;;;;;;6258624;22;20436;-72
2021/11/04 11:16:58;;;;;;;204.57;46.63;;;9.60;99.90;;;;;;6258003;22;20389;-72
2021/11/04 11:19:29;;;;;;;168.30;39.47;;;9.60;99.90;;;;;;6257921;22;20869;-72
2021/11/04 11:21:58;;;;;;;210.13;46.43;;;9.60;99.90;;;;;;6248259;22;20426;-72
2021/11/04 11:24:31;;;;;;;262.20;55.43;;;9.60;99.90;;;;;;6258000;22;20394;-73
2021/11/04 11:27:01;;;;;;;223.27;45.27;;;9.70;99.90;;;;;;6258296;22;20382;-73
2021/11/04 11:29:35;;;;;;;250.40;52.60;;;9.70;99.90;;;;;;6271783;22;20459;-73
2021/11/04 11:32:20;;;;;;;256.43;49.93;;;9.70;99.90;;;;;;6257958;22;20414;-73
2021/11/04 11:34:49;;;;;;;237.37;43.23;;;9.80;99.90;;;;;;6257994;22;20396;-73
2021/11/04 11:37:21;;;;;;;185.63;34.10;;;9.80;99.90;;;;;;6271769;22;20769;-72
2021/11/04 11:40:13;;;;;;;278.07;48.97;;;9.80;99.90;;;;;;6257907;22;20410;-72
2021/11/04 11:43:02;;;;;;;290.20;58.33;;;9.80;99.90;;;;;;6246088;23;20854;-73
2021/11/04 11:45:33;;;;;;;165.13;34.83;;;9.80;99.90;;;;;;6257883;22;20794;-73
2021/11/04 11:48:17;;;;;;;255.17;43.87;;;9.80;99.90;;;;;;6258141;22;20448;-73
2021/11/04 11:50:55;;;;;;;229.40;54.37;;;9.80;99.90;;;;;;6245899;23;20444;-72
2021/11/04 11:53:33;;;;;;;187.73;37.67;;;9.90;99.90;;;;;;6245908;23;20868;-73
2021/11/04 11:56:03;;;;;;;247.10;42.90;;;9.90;99.90;;;;;;6271464;22;20405;-73
2021/11/04 11:58:33;;;;;;;191.77;34.03;;;9.90;99.90;;;;;;6271428;22;20951;-73
2021/11/04 12:01:17;;;;;;;177.83;27.13;;;9.90;99.90;;;;;;6257475;22;20496;-73
2021/11/04 12:04:00;;;;;;;180.47;28.53;;;9.90;99.90;;;;;;6258181;22;20405;-73
2021/11/04 12:06:59;;;;;;;186.37;32.03;;;9.90;99.90;;;;;;6257991;22;20390;-73
2021/11/04 12:09:48;;;;;;;135.13;27.13;;;9.90;99.90;;;;;;6264921;22;20885;-72
2021/11/04 12:12:44;;;;;;;219.30;31.57;;;9.90;99.90;;;;;;6260224;23;20405;-72
2021/11/04 12:15:12;;;;;;;205.97;37.87;;;9.90;99.90;;;;;;6270481;22;20470;-72
2021/11/04 12:18:14;;;;;;;233.33;29.50;;;9.90;99.90;;;;;;6260242;23;20409;-73
2021/11/04 12:20:56;;;;;;;174.17;31.87;;;9.90;99.90;;;;;;6266469;22;20487;-73
2021/11/04 12:23:44;;;;;;;182.27;30.93;;;9.90;99.90;;;;;;6262656;23;20432;-73
2021/11/04 12:26:14;;;;;;;245.87;33.63;;;10.00;99.90;;;;;;6272101;22;20397;-72
2021/11/04 12:28:49;;;;;;;193.53;28.50;;;10.00;99.90;;;;;;6267776;22;20401;-72
2021/11/04 12:31:20;;;;;;;142.53;27.50;;;9.90;99.90;;;;;;6257903;22;20429;-72
2021/11/04 12:33:50;;;;;;;213.97;36.83;;;9.90;99.90;;;;;;6279377;22;20500;-73
2021/11/04 12:36:32;;;;;;;133.00;30.60;;;10.00;99.90;;;;;;6250728;23;20446;-73
2021/11/04 12:39:01;;;;;;;181.47;31.70;;;10.00;99.90;;;;;;6247813;22;20390;-73
2021/11/04 12:41:30;;;;;;;142.87;30.97;;;10.00;99.90;;;;;;6257506;22;20735;-73